Time;durP1;ratioP1;P1;durP2;ratioP2;P2;SDS_P1;SDS_P2;PMS_P1;PMS_P2;Temp;Humidity;BMP_temperature;BMP_pressure;BME280_temperature;BME280_humidity;BME280_pressure;Samples;Min_cycle;Max_cycle;Signal;HPM_P1;HPM_P2
2021/11/04 00:02:05;;;;;;;9.73;1.92;;;15.10;92.10;;;;;;5031682;28;20474;-72
2021/11/04 00:04:31;;;;;;;10.10;1.85;;;15.20;92.20;;;;;;5031350;28;20053;-72
2021/11/04 00:06:56;;;;;;;7.95;1.73;;;15.20;91.80;;;;;;5031683;28;20069;-72
2021/11/04 00:09:22;;;;;;;8.93;1.48;;;15.30;91.70;;;;;;5031599;28;20035;-72
2021/11/04 00:11:48;;;;;;;8.07;1.45;;;15.40;91.60;;;;;;5028929;28;20040;-72
2021/11/04 00:14:14;;;;;;;10.15;1.45;;;15.50;91.30;;;;;;5029013;28;20447;-72
2021/11/04 00:16:40;;;;;;;9.80;1.35;;;15.50;91.00;;;;;;5030095;28;20026;-72
2021/11/04 00:19:06;;;;;;;8.75;1.52;;;15.60;90.90;;;;;;5030921;28;20036;-72
2021/11/04 00:21:32;;;;;;;9.75;1.88;;;15.70;90.90;;;;;;5032744;28;20032;-72
2021/11/04 00:23:57;;;;;;;11.07;1.80;;;15.80;90.80;;;;;;5035571;28;20479;-72
2021/11/04 00:26:23;;;;;;;11.45;2.00;;;15.80;90.80;;;;;;5034860;28;20120;-72
2021/11/04 00:28:49;;;;;;;9.00;1.67;;;15.80;90.80;;;;;;5034289;28;20029;-72
2021/11/04 00:31:15;;;;;;;10.32;1.63;;;15.90;90.90;;;;;;5034468;28;20029;-72
2021/11/04 00:33:41;;;;;;;8.52;1.45;;;15.90;90.90;;;;;;5035669;28;20034;-72
2021/11/04 00:36:07;;;;;;;11.50;2.13;;;16.00;91.00;;;;;;5036313;28;20466;-72
2021/11/04 00:38:33;;;;;;;9.40;1.90;;;16.00;90.90;;;;;;5034627;28;20029;-72
2021/11/04 00:40:59;;;;;;;12.98;1.73;;;16.10;90.90;;;;;;5035928;28;20148;-72
2021/11/04 00:43:24;;;;;;;11.02;1.85;;;16.20;90.80;;;;;;5035790;28;20025;-72
2021/11/04 00:45:50;;;;;;;9.10;1.73;;;16.20;90.70;;;;;;5035757;28;20462;-72
2021/11/04 00:48:16;;;;;;;9.00;2.05;;;16.30;90.60;;;;;;5035720;28;20505;-72
2021/11/04 00:50:42;;;;;;;12.50;2.40;;;16.30;90.60;;;;;;5035751;28;20053;-72
2021/11/04 00:53:07;;;;;;;8.43;1.50;;;16.30;90.60;;;;;;5035833;28;20034;-72
2021/11/04 00:55:33;;;;;;;10.23;1.75;;;16.40;90.60;;;;;;5035748;28;20036;-72
2021/11/04 00:57:59;;;;;;;6.88;1.50;;;16.40;90.50;;;;;;5035313;28;20038;-72
2021/11/04 01:00:25;;;;;;;9.07;1.65;;;16.40;90.60;;;;;;5035901;28;20025;-72
2021/11/04 01:06:12;;;;;;;6.90;1.40;;;16.40;90.50;;;;;;4764565;28;20056;-72
2021/11/04 01:08:38;;;;;;;10.23;1.90;;;16.50;90.80;;;;;;5034979;28;20041;-72
2021/11/04 01:11:04;;;;;;;13.07;1.60;;;16.50;91.00;;;;;;5035006;28;20018;-72
2021/11/04 01:13:29;;;;;;;9.10;1.35;;;16.50;91.00;;;;;;5035218;28;20029;-72
2021/11/04 01:15:55;;;;;;;8.77;1.70;;;16.50;90.90;;;;;;5035150;28;20350;-72
2021/11/04 01:18:21;;;;;;;7.80;1.55;;;16.50;90.90;;;;;;5034925;28;20033;-72
2021/11/04 01:20:47;;;;;;;10.20;1.98;;;16.50;90.90;;;;;;5035343;28;20101;-72
2021/11/04 01:23:12;;;;;;;8.27;1.40;;;16.50;90.90;;;;;;5035046;28;20444;-72
2021/11/04 01:25:38;;;;;;;6.35;1.15;;;16.50;90.80;;;;;;5035150;28;20021;-72
2021/11/04 01:28:08;;;;;;;7.43;1.88;;;16.50;90.80;;;;;;5034940;28;20060;-72
2021/11/04 01:30:38;;;;;;;7.13;1.60;;;16.60;90.80;;;;;;5034728;28;20026;-72
2021/11/04 01:33:04;;;;;;;7.53;1.70;;;16.60;90.80;;;;;;5034365;28;20029;-72
2021/11/04 01:35:33;;;;;;;7.05;1.50;;;16.70;91.00;;;;;;5034880;28;20027;-72
2021/11/04 01:37:59;;;;;;;11.65;1.95;;;16.70;90.80;;;;;;5034669;28;20022;-72
2021/11/04 01:40:25;;;;;;;9.95;2.22;;;16.70;90.90;;;;;;5034751;28;20025;-72
2021/11/04 01:42:51;;;;;;;10.60;1.83;;;16.70;91.00;;;;;;5033306;28;20083;-72
2021/11/04 01:45:17;;;;;;;12.05;2.08;;;16.80;90.80;;;;;;5034692;28;20028;-72
2021/11/04 01:47:46;;;;;;;6.60;1.70;;;16.80;90.70;;;;;;5034480;28;20069;-72
2021/11/04 01:50:16;;;;;;;14.85;2.88;;;16.80;90.70;;;;;;5034254;28;20397;-72
2021/11/04 01:52:43;;;;;;;10.55;1.90;;;16.90;90.60;;;;;;5034371;28;20026;-72
2021/11/04 01:55:14;;;;;;;10.38;1.90;;;16.90;90.30;;;;;;5034503;28;20049;-72
2021/11/04 01:57:39;;;;;;;11.90;2.08;;;16.90;90.30;;;;;;5033287;28;20041;-73
2021/11/04 02:00:06;;;;;;;10.50;1.90;;;16.90;90.40;;;;;;5031695;28;20030;-72
2021/11/04 02:02:38;;;;;;;6.95;1.55;;;16.90;90.70;;;;;;5031640;28;20112;-71
2021/11/04 02:05:06;;;;;;;9.20;1.70;;;16.90;90.80;;;;;;5032550;28;20506;-72
2021/11/04 02:07:43;;;;;;;7.10;1.23;;;16.80;90.90;;;;;;5033806;28;20496;-72
2021/11/04 02:10:19;;;;;;;8.85;1.95;;;16.70;90.90;;;;;;5033962;28;20052;-72
2021/11/04 02:13:13;;;;;;;9.80;1.42;;;16.70;90.80;;;;;;5033795;28;20466;-72
2021/11/04 02:15:42;;;;;;;5.65;1.20;;;16.60;90.20;;;;;;5029795;28;20037;-72
2021/11/04 02:18:08;;;;;;;9.45;1.55;;;16.50;90.20;;;;;;5033619;28;20104;-72
2021/11/04 02:20:51;;;;;;;9.63;1.80;;;16.50;90.20;;;;;;5033703;28;20032;-72
2021/11/04 02:23:48;;;;;;;8.98;1.33;;;16.50;89.90;;;;;;5034170;28;20392;-72
2021/11/04 02:26:16;;;;;;;7.68;1.20;;;16.50;89.20;;;;;;5033690;28;20034;-72
2021/11/04 02:28:42;;;;;;;11.95;1.80;;;16.50;89.10;;;;;;5033541;28;20045;-72
2021/11/04 02:31:09;;;;;;;13.43;1.67;;;16.50;88.80;;;;;;5033936;28;20032;-73
2021/11/04 02:33:38;;;;;;;9.98;1.73;;;16.50;88.10;;;;;;5033612;28;20370;-73
2021/11/04 02:36:06;;;;;;;13.98;2.45;;;16.50;88.30;;;;;;5033654;28;20377;-72
2021/11/04 02:38:32;;;;;;;7.55;1.58;;;16.50;88.30;;;;;;5033316;28;20033;-73
2021/11/04 02:41:00;;;;;;;8.95;1.48;;;16.50;87.70;;;;;;5033612;28;20496;-73
2021/11/04 02:43:28;;;;;;;12.75;1.95;;;16.50;88.00;;;;;;5032962;28;20025;-73
2021/11/04 02:45:54;;;;;;;12.90;1.80;;;16.50;87.30;;;;;;5032983;28;20087;-73
2021/11/04 02:48:19;;;;;;;12.10;1.88;;;16.50;87.60;;;;;;5033125;28;20053;-73
2021/11/04 02:50:51;;;;;;;9.80;1.98;;;16.50;87.10;;;;;;5033075;28;20025;-73
2021/11/04 02:53:21;;;;;;;11.82;1.88;;;16.50;86.70;;;;;;5032118;28;20087;-73
2021/11/04 02:55:49;;;;;;;9.90;1.15;;;16.60;86.70;;;;;;5033084;28;20022;-73
2021/11/04 02:58:15;;;;;;;6.50;1.20;;;16.60;86.60;;;;;;5032820;28;20104;-73
2021/11/04 03:00:44;;;;;;;9.77;1.80;;;16.50;86.40;;;;;;5033160;28;20040;-73
2021/11/04 03:03:09;;;;;;;10.30;1.65;;;16.50;86.20;;;;;;5033095;28;20048;-73
2021/11/04 03:05:35;;;;;;;8.98;1.48;;;16.60;86.10;;;;;;5033140;28;20046;-73
2021/11/04 03:08:01;;;;;;;9.13;1.90;;;16.60;86.20;;;;;;5033139;28;20064;-72
2021/11/04 03:10:27;;;;;;;7.63;1.60;;;16.50;85.70;;;;;;5033141;28;20036;-73
2021/11/04 03:12:52;;;;;;;12.20;1.50;;;16.60;85.60;;;;;;5031856;28;20060;-73
2021/11/04 03:15:22;;;;;;;7.57;1.50;;;16.50;85.30;;;;;;5033248;28;20381;-73
2021/11/04 03:17:50;;;;;;;10.57;1.63;;;16.50;85.50;;;;;;5033013;28;20397;-72
2021/11/04 03:20:17;;;;;;;14.98;2.10;;;16.50;86.60;;;;;;5032985;28;20017;-72
2021/11/04 03:22:45;;;;;;;9.80;1.70;;;16.50;86.10;;;;;;5033284;28;20057;-72
2021/11/04 03:25:14;;;;;;;20.50;3.67;;;16.50;86.30;;;;;;5033085;28;20025;-74
2021/11/04 03:27:45;;;;;;;10.00;1.60;;;16.50;86.10;;;;;;5032923;28;20034;-72
2021/11/04 03:30:13;;;;;;;14.52;1.85;;;16.50;85.80;;;;;;5032939;28;20030;-73
2021/11/04 03:32:39;;;;;;;18.08;2.22;;;16.50;85.30;;;;;;5032939;28;20099;-73
2021/11/04 03:35:09;;;;;;;11.20;2.22;;;16.50;85.50;;;;;;5032807;28;20041;-73
2021/11/04 03:37:38;;;;;;;17.40;2.28;;;16.50;85.50;;;;;;5032579;28;20585;-73
2021/11/04 03:40:05;;;;;;;13.60;2.33;;;16.50;85.40;;;;;;5032808;28;20100;-73
2021/11/04 03:42:31;;;;;;;15.57;2.60;;;16.50;85.90;;;;;;5032935;28;20038;-73
2021/11/04 03:44:59;;;;;;;16.00;2.42;;;16.60;87.10;;;;;;5033051;28;20501;-73
2021/11/04 03:47:29;;;;;;;16.35;2.50;;;16.50;87.70;;;;;;5032669;28;20098;-73
2021/11/04 03:49:56;;;;;;;14.73;2.47;;;16.50;88.80;;;;;;5032858;28;20033;-73
2021/11/04 03:52:23;;;;;;;21.00;3.10;;;16.50;89.60;;;;;;5032633;28;20529;-74
2021/11/04 03:54:50;;;;;;;19.98;2.97;;;16.40;90.10;;;;;;5032681;28;20026;-73
2021/11/04 03:57:17;;;;;;;21.38;3.22;;;16.40;90.60;;;;;;5036630;28;20029;-73
2021/11/04 03:59:43;;;;;;;23.58;3.80;;;16.30;91.00;;;;;;5036835;28;20037;-73
2021/11/04 04:02:09;;;;;;;29.38;3.72;;;16.30;91.30;;;;;;5036587;28;20021;-73
2021/11/04 04:04:36;;;;;;;24.45;3.92;;;16.20;91.50;;;;;;5036484;28;20029;-74
2021/11/04 04:07:01;;;;;;;25.77;3.75;;;16.20;91.60;;;;;;5036236;28;20137;-73
2021/11/04 04:09:27;;;;;;;24.90;3.63;;;16.20;91.90;;;;;;5036504;28;20517;-74
2021/11/04 04:11:54;;;;;;;17.83;3.28;;;16.10;91.80;;;;;;5036009;28;20022;-73
2021/11/04 04:14:20;;;;;;;15.60;2.28;;;16.10;91.10;;;;;;5036260;28;20029;-73
2021/11/04 04:16:47;;;;;;;21.80;3.03;;;16.10;90.80;;;;;;5036208;28;20021;-74
2021/11/04 04:19:13;;;;;;;16.10;2.97;;;16.10;90.80;;;;;;5036274;28;20029;-73
2021/11/04 04:21:38;;;;;;;18.73;2.65;;;16.00;91.00;;;;;;5036316;28;20079;-73
2021/11/04 04:24:05;;;;;;;25.40;3.22;;;16.10;91.20;;;;;;5036056;28;20025;-73
2021/11/04 04:26:30;;;;;;;21.42;2.30;;;16.10;91.20;;;;;;5036043;28;20489;-73
2021/11/04 04:28:56;;;;;;;18.65;2.22;;;16.00;90.80;;;;;;5035926;28;20029;-73
2021/11/04 04:31:22;;;;;;;17.08;2.15;;;16.00;90.40;;;;;;5035922;28;20029;-74
2021/11/04 04:33:48;;;;;;;16.55;2.90;;;16.00;90.20;;;;;;5036320;28;20026;-74
2021/11/04 04:36:13;;;;;;;16.13;1.77;;;16.00;89.90;;;;;;5036061;28;20382;-73
2021/11/04 04:38:39;;;;;;;16.13;2.13;;;16.00;88.70;;;;;;5036175;28;20045;-73
2021/11/04 04:41:05;;;;;;;18.13;2.40;;;15.90;89.00;;;;;;5036147;28;20040;-73
2021/11/04 04:43:30;;;;;;;23.63;2.45;;;15.90;89.40;;;;;;5035859;28;20033;-73
2021/11/04 04:45:56;;;;;;;21.40;2.78;;;15.90;88.70;;;;;;5036010;28;20100;-73
2021/11/04 04:48:22;;;;;;;13.02;2.70;;;15.90;88.10;;;;;;5034503;28;20168;-73
2021/11/04 04:50:48;;;;;;;15.05;2.10;;;15.90;88.00;;;;;;5035634;28;20036;-75
2021/11/04 04:53:14;;;;;;;21.08;1.92;;;15.80;87.00;;;;;;5036017;28;20026;-73
2021/11/04 04:55:40;;;;;;;14.95;2.05;;;15.80;84.70;;;;;;5035824;28;20036;-73
2021/11/04 04:58:06;;;;;;;13.73;2.28;;;15.70;83.70;;;;;;5035657;28;20103;-73
2021/11/04 05:00:32;;;;;;;12.57;1.77;;;15.70;84.60;;;;;;5035673;28;20079;-74
2021/11/04 05:02:58;;;;;;;13.25;2.05;;;15.70;83.90;;;;;;5035482;28;20025;-73
2021/11/04 05:05:24;;;;;;;14.88;2.90;;;15.70;83.90;;;;;;5035083;28;20524;-73
2021/11/04 05:07:50;;;;;;;12.52;1.98;;;15.70;84.60;;;;;;5034068;28;20100;-73
2021/11/04 05:10:16;;;;;;;14.52;2.10;;;15.70;85.00;;;;;;5035301;28;20025;-73
2021/11/04 05:12:44;;;;;;;14.95;2.08;;;15.70;85.00;;;;;;5035238;28;20032;-73
2021/11/04 05:15:10;;;;;;;14.75;2.08;;;15.60;84.50;;;;;;5034977;28;20512;-73
2021/11/04 05:17:35;;;;;;;13.63;2.25;;;15.60;84.30;;;;;;5034990;28;20030;-73
2021/11/04 05:20:04;;;;;;;16.70;2.10;;;15.60;84.60;;;;;;5035073;28;20083;-73
2021/11/04 05:22:29;;;;;;;10.18;1.70;;;15.60;85.00;;;;;;5035014;28;20049;-73
2021/11/04 05:24:55;;;;;;;10.25;1.83;;;15.50;85.40;;;;;;5035058;28;20068;-73
2021/11/04 05:27:21;;;;;;;13.77;2.30;;;15.60;85.70;;;;;;5034808;28;20439;-73
2021/11/04 05:29:46;;;;;;;8.38;1.85;;;15.60;85.80;;;;;;5034987;28;20060;-73
2021/11/04 05:32:12;;;;;;;11.27;2.25;;;15.60;84.60;;;;;;5034927;28;20025;-73
2021/11/04 05:34:39;;;;;;;12.55;2.33;;;15.50;84.80;;;;;;5034651;28;20072;-73
2021/11/04 05:37:06;;;;;;;12.35;1.90;;;15.60;84.80;;;;;;5034941;28;20393;-73
2021/11/04 05:39:33;;;;;;;11.23;2.33;;;15.50;85.50;;;;;;5034735;28;20018;-73
2021/11/04 05:41:59;;;;;;;12.18;2.15;;;15.40;85.60;;;;;;5034950;28;20025;-73
2021/11/04 05:44:25;;;;;;;14.45;2.25;;;15.40;86.20;;;;;;5034568;28;20386;-73
2021/11/04 05:46:50;;;;;;;12.23;1.90;;;15.40;86.40;;;;;;5034265;28;20040;-74
2021/11/04 05:49:16;;;;;;;12.43;1.70;;;15.40;85.90;;;;;;5034464;28;20028;-73
2021/11/04 05:51:42;;;;;;;10.52;1.95;;;15.40;85.20;;;;;;5034682;28;20028;-73
2021/11/04 05:54:07;;;;;;;17.67;2.20;;;15.40;85.50;;;;;;5033325;28;20108;-73
2021/11/04 05:56:33;;;;;;;14.18;2.20;;;15.30;85.60;;;;;;5034555;28;20120;-73
2021/11/04 05:58:59;;;;;;;12.23;2.00;;;15.30;85.00;;;;;;5034362;28;20034;-73
2021/11/04 06:01:28;;;;;;;14.75;2.15;;;15.30;85.20;;;;;;5034607;28;20110;-74
2021/11/04 06:03:53;;;;;;;13.88;2.28;;;15.30;84.20;;;;;;5034564;28;20030;-73
2021/11/04 06:06:19;;;;;;;10.63;2.42;;;15.20;84.30;;;;;;5033083;28;20053;-73
2021/11/04 06:08:45;;;;;;;10.48;2.72;;;15.20;83.80;;;;;;5034121;28;20083;-73
2021/11/04 06:11:10;;;;;;;11.60;2.00;;;15.20;84.10;;;;;;5032797;28;20025;-74
2021/11/04 06:13:36;;;;;;;12.88;1.95;;;15.20;83.80;;;;;;5034213;28;20029;-73
2021/11/04 06:16:02;;;;;;;9.65;1.70;;;15.20;83.50;;;;;;5034377;28;20053;-73
2021/11/04 06:18:27;;;;;;;11.48;1.65;;;15.20;83.40;;;;;;5033851;28;20038;-73
2021/11/04 06:20:53;;;;;;;11.88;1.73;;;15.10;82.60;;;;;;5034182;28;20036;-73
2021/11/04 06:23:19;;;;;;;18.45;2.83;;;15.10;82.80;;;;;;5033893;28;20040;-73
2021/11/04 06:25:44;;;;;;;11.85;1.40;;;15.10;83.00;;;;;;5033774;28;20105;-74
2021/11/04 06:28:10;;;;;;;6.88;1.67;;;15.10;83.60;;;;;;5033173;28;20072;-73
2021/11/04 06:30:36;;;;;;;10.98;2.92;;;15.10;83.90;;;;;;5032556;28;20029;-73
2021/11/04 06:33:02;;;;;;;16.38;5.22;;;15.00;85.00;;;;;;5034015;28;20029;-73
2021/11/04 06:35:27;;;;;;;15.35;5.70;;;15.00;86.50;;;;;;5033650;28;20493;-73
2021/11/04 06:37:53;;;;;;;16.98;5.78;;;15.00;87.40;;;;;;5033373;28;20109;-74
2021/11/04 06:40:24;;;;;;;20.50;5.38;;;15.00;87.30;;;;;;5033299;28;20067;-73
2021/11/04 06:42:50;;;;;;;14.30;5.18;;;15.00;87.60;;;;;;5033310;28;20021;-73
2021/11/04 06:45:16;;;;;;;8.02;4.60;;;14.90;87.10;;;;;;5033628;28;20445;-73
2021/11/04 06:47:48;;;;;;;13.23;4.65;;;15.00;86.60;;;;;;5033449;28;20038;-73
2021/11/04 06:50:16;;;;;;;12.90;5.22;;;14.90;86.10;;;;;;5033541;28;20486;-73
2021/11/04 06:53:09;;;;;;;14.77;4.50;;;14.80;86.00;;;;;;5032827;28;20030;-73
2021/11/04 06:55:39;;;;;;;11.10;5.20;;;14.80;86.60;;;;;;5026638;28;20048;-73
2021/11/04 06:58:09;;;;;;;10.18;5.43;;;14.80;87.20;;;;;;5032037;28;20025;-73
2021/11/04 07:00:39;;;;;;;12.23;5.43;;;14.70;87.60;;;;;;5033035;28;20078;-73
2021/11/04 07:03:25;;;;;;;12.35;6.35;;;14.70;87.90;;;;;;5032840;28;20037;-74
2021/11/04 07:05:57;;;;;;;11.38;7.40;;;14.70;88.00;;;;;;5031737;28;20057;-73
2021/11/04 07:08:24;;;;;;;16.35;7.97;;;14.70;87.80;;;;;;5030970;28;20038;-72
2021/11/04 07:10:58;;;;;;;17.83;8.10;;;14.60;88.20;;;;;;5031693;28;20020;-72
2021/11/04 07:13:26;;;;;;;11.52;6.20;;;14.60;88.20;;;;;;5032934;28;20025;-73
2021/11/04 07:15:54;;;;;;;13.75;6.57;;;14.70;88.60;;;;;;5031503;28;20032;-73
2021/11/04 07:18:20;;;;;;;10.40;6.30;;;14.70;88.40;;;;;;5019752;28;20029;-73
2021/11/04 07:20:50;;;;;;;10.93;6.30;;;14.70;88.00;;;;;;5027992;28;20040;-73
2021/11/04 07:23:22;;;;;;;10.85;6.53;;;14.70;88.10;;;;;;5028426;28;20024;-74
2021/11/04 07:25:52;;;;;;;10.30;7.10;;;14.80;88.20;;;;;;5032896;28;20053;-74
2021/11/04 07:28:21;;;;;;;10.30;6.50;;;14.80;87.70;;;;;;5032560;28;20516;-75
2021/11/04 07:30:53;;;;;;;10.88;6.60;;;14.90;88.00;;;;;;5018544;28;20057;-74
2021/11/04 07:33:21;;;;;;;12.85;7.05;;;15.00;88.00;;;;;;4988461;28;20040;-74
2021/11/04 07:35:47;;;;;;;8.75;5.28;;;15.00;87.70;;;;;;5001037;28;20033;-73
2021/11/04 07:38:14;;;;;;;9.95;5.00;;;15.20;86.80;;;;;;5012306;28;20041;-74
2021/11/04 07:40:40;;;;;;;10.45;4.47;;;15.20;86.10;;;;;;5012909;28;20470;-74
2021/11/04 07:43:06;;;;;;;17.05;5.55;;;15.30;85.70;;;;;;5012154;28;20030;-74
2021/11/04 07:45:32;;;;;;;62.90;10.85;;;15.30;85.10;;;;;;5012430;28;20025;-73
2021/11/04 07:47:59;;;;;;;13.02;8.35;;;15.30;85.50;;;;;;5011902;28;20109;-74
2021/11/04 07:50:27;;;;;;;8.73;5.03;;;15.30;85.70;;;;;;5012042;28;20380;-75
2021/11/04 07:52:54;;;;;;;11.18;4.00;;;15.40;85.10;;;;;;5011262;28;20096;-75
2021/11/04 07:55:20;;;;;;;17.15;7.85;;;15.40;84.80;;;;;;5011676;28;20109;-75
2021/11/04 07:57:46;;;;;;;12.45;4.70;;;15.50;84.50;;;;;;5012353;28;20032;-77
2021/11/04 08:00:15;;;;;;;14.38;4.68;;;15.50;84.10;;;;;;5012540;28;20018;-74
2021/11/04 08:02:41;;;;;;;8.65;4.47;;;15.50;84.60;;;;;;5012379;28;20026;-75
2021/11/04 08:05:08;;;;;;;9.50;4.57;;;15.60;84.60;;;;;;5012155;28;20030;-75
2021/11/04 08:07:35;;;;;;;7.93;4.20;;;15.60;84.50;;;;;;5012409;28;20045;-73
2021/11/04 08:10:03;;;;;;;8.65;3.40;;;15.70;84.50;;;;;;5011691;28;20346;-73
2021/11/04 08:12:29;;;;;;;6.20;3.53;;;15.80;84.10;;;;;;5011224;28;20451;-72
2021/11/04 08:14:55;;;;;;;14.65;5.82;;;15.80;83.90;;;;;;5011703;28;20053;-74
2021/11/04 08:17:21;;;;;;;14.32;4.25;;;15.90;84.20;;;;;;5011400;28;20026;-75
2021/11/04 08:19:47;;;;;;;10.55;3.85;;;15.90;83.50;;;;;;5011856;28;20026;-75
2021/11/04 08:22:12;;;;;;;9.98;3.10;;;16.00;82.40;;;;;;5012145;28;20149;-74
2021/11/04 08:24:38;;;;;;;17.25;3.13;;;16.00;82.70;;;;;;5012658;28;20041;-74
2021/11/04 08:27:04;;;;;;;8.02;3.63;;;16.10;82.90;;;;;;5012791;28;20118;-74
2021/11/04 08:29:29;;;;;;;11.15;3.58;;;16.10;83.10;;;;;;5012542;28;20030;-75
2021/11/04 08:32:11;;;;;;;10.63;3.03;;;16.20;82.70;;;;;;5012576;28;20030;-75
2021/11/04 08:34:41;;;;;;;8.75;2.25;;;16.20;82.60;;;;;;5012797;28;20037;-70
2021/11/04 08:37:07;;;;;;;6.55;2.20;;;16.30;81.20;;;;;;5012266;28;20153;-70
2021/11/04 08:39:33;;;;;;;9.98;2.20;;;16.40;80.90;;;;;;5012186;28;20014;-70
2021/11/04 08:41:59;;;;;;;8.52;1.95;;;16.40;79.40;;;;;;5012421;28;20355;-70
2021/11/04 08:44:25;;;;;;;10.63;2.10;;;16.40;79.30;;;;;;5016001;28;20429;-70
2021/11/04 08:46:51;;;;;;;10.35;3.45;;;16.30;78.70;;;;;;5015894;28;20386;-70
2021/11/04 08:49:17;;;;;;;12.30;2.90;;;16.30;79.00;;;;;;5015594;28;20034;-71
2021/11/04 08:51:43;;;;;;;7.65;2.30;;;16.30;79.80;;;;;;5015189;28;20022;-70
2021/11/04 08:54:09;;;;;;;8.52;2.25;;;16.30;80.60;;;;;;5015428;28;20479;-70
2021/11/04 08:56:36;;;;;;;10.52;2.17;;;16.30;80.60;;;;;;5016010;28;20097;-71
2021/11/04 08:59:03;;;;;;;11.30;2.22;;;16.30;80.20;;;;;;5015851;28;20028;-70
2021/11/04 09:01:29;;;;;;;7.40;1.90;;;16.30;80.80;;;;;;5015848;28;20022;-70
2021/11/04 09:03:54;;;;;;;7.57;1.80;;;16.40;80.60;;;;;;5014966;28;20406;-70
2021/11/04 09:06:20;;;;;;;10.25;2.30;;;16.40;80.70;;;;;;5014534;28;20402;-70
2021/11/04 09:08:46;;;;;;;4.85;1.88;;;16.40;79.80;;;;;;5014939;28;20491;-70
2021/11/04 09:11:11;;;;;;;6.90;1.60;;;16.40;79.30;;;;;;5015212;28;20084;-70
2021/11/04 09:13:37;;;;;;;7.70;2.00;;;16.40;79.60;;;;;;5014665;28;20041;-70
2021/11/04 09:16:03;;;;;;;10.40;2.08;;;16.40;79.70;;;;;;5015391;28;20025;-70
2021/11/04 09:18:29;;;;;;;14.18;2.08;;;16.40;80.50;;;;;;5015038;28;20026;-70
2021/11/04 09:20:54;;;;;;;7.53;1.85;;;16.50;78.70;;;;;;5015571;28;20030;-69
2021/11/04 09:23:20;;;;;;;9.75;1.85;;;16.50;78.80;;;;;;5015495;28;20058;-70
2021/11/04 09:25:46;;;;;;;12.65;1.77;;;16.50;79.20;;;;;;5015363;28;20037;-70
2021/11/04 09:28:12;;;;;;;11.40;1.90;;;16.50;78.00;;;;;;5014862;28;20034;-70
2021/11/04 09:30:37;;;;;;;8.23;1.45;;;16.50;78.80;;;;;;5015161;28;20033;-71
2021/11/04 09:33:03;;;;;;;8.25;1.65;;;16.50;77.70;;;;;;5015291;28;20113;-69
2021/11/04 09:35:29;;;;;;;12.35;1.63;;;16.50;75.50;;;;;;5015277;28;20022;-70
2021/11/04 09:37:55;;;;;;;11.70;1.77;;;16.60;75.80;;;;;;5015246;28;20061;-70
2021/11/04 09:40:21;;;;;;;13.55;2.00;;;16.60;73.10;;;;;;5014818;28;20454;-70
2021/11/04 09:42:49;;;;;;;16.42;2.42;;;16.60;70.90;;;;;;5014417;28;20064;-70
2021/11/04 09:45:15;;;;;;;9.65;1.58;;;16.60;69.40;;;;;;5014689;28;20025;-70
2021/11/04 09:47:41;;;;;;;13.02;2.08;;;16.60;67.40;;;;;;5013296;28;20037;-70
2021/11/04 09:50:11;;;;;;;10.57;1.55;;;16.60;65.90;;;;;;5013041;28;20390;-70
2021/11/04 09:52:38;;;;;;;12.43;1.63;;;16.60;66.10;;;;;;5012475;28;20034;-70
2021/11/04 09:55:08;;;;;;;10.52;1.50;;;16.60;67.30;;;;;;5013211;28;20698;-70
2021/11/04 09:57:34;;;;;;;10.02;1.45;;;16.60;67.00;;;;;;5013835;28;20033;-70
2021/11/04 10:00:00;;;;;;;9.40;1.58;;;16.60;64.80;;;;;;5014593;28;20033;-70
2021/11/04 10:02:28;;;;;;;12.93;1.88;;;16.60;66.90;;;;;;5028800;28;20049;-70
2021/11/04 10:05:08;;;;;;;9.68;1.98;;;16.70;65.40;;;;;;5013147;28;20060;-70
2021/11/04 10:07:49;;;;;;;13.63;1.67;;;16.70;65.20;;;;;;5013847;28;20132;-70
2021/11/04 10:10:20;;;;;;;14.35;2.28;;;16.80;63.00;;;;;;5014026;28;20430;-70
2021/11/04 10:12:59;;;;;;;16.55;2.03;;;16.80;64.80;;;;;;5014072;28;20092;-70
2021/11/04 10:15:25;;;;;;;12.73;2.08;;;16.90;66.20;;;;;;5014050;28;20083;-70
2021/11/04 10:17:51;;;;;;;15.30;2.35;;;16.90;65.60;;;;;;5014446;28;20022;-70
2021/11/04 10:20:27;;;;;;;9.02;1.70;;;17.00;64.30;;;;;;5014756;28;20032;-70
2021/11/04 10:23:01;;;;;;;11.90;2.35;;;17.10;64.60;;;;;;5014387;28;20026;-70
2021/11/04 10:25:27;;;;;;;14.20;1.73;;;17.10;64.80;;;;;;5014386;28;20022;-70
2021/11/04 10:27:53;;;;;;;20.65;1.85;;;17.20;66.10;;;;;;5014183;28;20057;-70
2021/11/04 10:30:33;;;;;;;12.10;1.95;;;17.20;66.00;;;;;;5014159;28;20080;-70
2021/11/04 10:32:59;;;;;;;12.60;1.67;;;17.20;64.90;;;;;;5014335;28;20429;-70
2021/11/04 10:35:30;;;;;;;14.27;1.83;;;17.30;62.90;;;;;;5014253;28;20086;-70
2021/11/04 10:37:59;;;;;;;16.35;2.40;;;17.20;64.50;;;;;;5012835;28;20036;-71
2021/11/04 10:40:25;;;;;;;15.85;1.73;;;17.30;63.80;;;;;;5013910;28;20033;-71
2021/11/04 10:42:56;;;;;;;12.35;2.22;;;17.30;64.50;;;;;;5013923;28;20034;-70
2021/11/04 10:45:24;;;;;;;8.10;1.73;;;17.30;62.10;;;;;;5014111;28;20026;-70
2021/11/04 10:48:16;;;;;;;13.60;1.83;;;17.30;63.80;;;;;;5013822;28;20398;-69
2021/11/04 10:50:44;;;;;;;12.30;1.83;;;17.30;63.10;;;;;;5013337;28;20033;-70
2021/11/04 10:53:28;;;;;;;7.43;1.45;;;17.40;62.50;;;;;;5013425;28;20426;-70
2021/11/04 10:55:56;;;;;;;11.40;2.55;;;17.50;63.60;;;;;;5013565;28;20026;-70
2021/11/04 10:58:30;;;;;;;7.90;1.58;;;17.60;63.60;;;;;;5013343;28;20137;-70
2021/11/04 11:00:56;;;;;;;9.20;1.45;;;17.70;60.80;;;;;;5013374;28;20025;-71
2021/11/04 11:03:22;;;;;;;9.43;1.30;;;17.70;60.50;;;;;;5013687;28;20030;-70
2021/11/04 11:05:48;;;;;;;9.02;2.03;;;17.70;58.40;;;;;;5012372;28;20449;-70
2021/11/04 11:08:15;;;;;;;7.07;1.60;;;17.70;57.30;;;;;;5013113;28;20045;-72
2021/11/04 11:10:42;;;;;;;7.57;1.35;;;17.70;56.60;;;;;;5013510;28;20053;-73
2021/11/04 11:13:08;;;;;;;7.22;1.33;;;17.70;57.30;;;;;;5013502;28;20033;-74
2021/11/04 11:15:35;;;;;;;6.95;1.40;;;;;;;;;;5013439;28;20033;-72
2021/11/04 11:18:02;;;;;;;9.30;1.40;;;;;;;;;;5013078;28;20041;-74
2021/11/04 11:20:28;;;;;;;10.73;1.65;;;17.60;58.10;;;;;;5013446;28;20105;-70
2021/11/04 11:22:55;;;;;;;10.93;2.15;;;17.70;60.80;;;;;;5013199;28;20176;-71
2021/11/04 11:25:21;;;;;;;11.73;1.63;;;17.60;61.70;;;;;;5012095;28;20041;-72
2021/11/04 11:27:50;;;;;;;9.40;1.92;;;17.60;62.10;;;;;;5013054;28;20115;-70
2021/11/04 11:30:16;;;;;;;8.68;1.67;;;17.70;62.80;;;;;;5013734;28;20060;-70
2021/11/04 11:32:44;;;;;;;12.02;1.42;;;17.70;63.20;;;;;;5013289;28;20045;-71
2021/11/04 11:35:15;;;;;;;10.98;1.70;;;17.80;63.60;;;;;;5013567;28;20103;-70
2021/11/04 11:37:58;;;;;;;6.00;1.27;;;17.90;63.20;;;;;;5013163;28;20025;-70
2021/11/04 11:40:26;;;;;;;6.85;1.35;;;18.00;60.80;;;;;;5013411;28;20478;-71
2021/11/04 11:43:13;;;;;;;8.88;1.65;;;18.00;61.00;;;;;;5013420;28;20050;-71
2021/11/04 11:45:41;;;;;;;9.52;1.70;;;18.00;60.90;;;;;;5013224;28;20030;-71
2021/11/04 11:48:27;;;;;;;11.90;1.95;;;18.00;61.20;;;;;;5017385;28;20049;-71
2021/11/04 11:50:55;;;;;;;9.32;1.67;;;18.10;61.30;;;;;;5032998;28;20041;-70
2021/11/04 11:53:33;;;;;;;10.07;1.80;;;18.10;60.90;;;;;;5033197;28;20040;-70
2021/11/04 11:56:00;;;;;;;10.77;1.60;;;18.10;61.20;;;;;;5033456;28;20554;-70
2021/11/04 11:58:32;;;;;;;11.07;1.60;;;18.20;61.60;;;;;;5033250;28;20030;-70
2021/11/04 12:01:05;;;;;;;6.45;1.55;;;18.20;62.40;;;;;;5032955;28;20390;-70
2021/11/04 12:03:31;;;;;;;5.22;1.17;;;18.30;62.00;;;;;;5033000;28;20030;-70
2021/11/04 12:05:58;;;;;;;5.00;1.15;;;18.40;60.00;;;;;;5032901;28;20045;-70
2021/11/04 12:08:27;;;;;;;6.43;1.50;;;18.40;60.10;;;;;;5032693;28;20116;-70
2021/11/04 12:10:53;;;;;;;7.63;1.50;;;18.40;59.40;;;;;;5031674;28;20116;-71
2021/11/04 12:13:39;;;;;;;6.57;1.48;;;18.30;59.30;;;;;;5031787;28;20453;-70
2021/11/04 12:16:15;;;;;;;5.78;1.10;;;18.30;59.30;;;;;;5033283;28;20112;-71
2021/11/04 12:19:06;;;;;;;10.00;1.20;;;18.30;59.90;;;;;;5036480;28;20029;-70
2021/11/04 12:21:37;;;;;;;7.97;1.37;;;18.40;62.70;;;;;;5032839;28;20041;-71
2021/11/04 12:24:05;;;;;;;7.20;1.80;;;18.40;65.20;;;;;;5036374;28;20072;-70
2021/11/04 12:26:34;;;;;;;5.40;1.02;;;18.30;62.90;;;;;;5036083;28;20026;-70
2021/11/04 12:29:05;;;;;;;8.48;1.58;;;18.20;63.10;;;;;;5035989;28;20056;-71
2021/11/04 12:31:32;;;;;;;6.50;1.13;;;18.20;63.60;;;;;;5021271;28;20589;-71
2021/11/04 12:34:01;;;;;;;9.77;2.35;;;18.20;64.40;;;;;;5016261;28;20022;-72
2021/11/04 12:36:49;;;;;;;7.05;1.15;;;18.20;63.90;;;;;;5016140;28;20042;-70
2021/11/04 12:39:25;;;;;;;9.07;1.65;;;18.30;64.40;;;;;;5016140;28;20429;-70
2021/11/04 12:41:53;;;;;;;13.35;1.27;;;18.30;66.20;;;;;;5014838;28;20022;-71
2021/11/04 12:44:23;;;;;;;10.75;2.00;;;18.30;66.50;;;;;;5016079;28;20026;-71
2021/11/04 12:46:49;;;;;;;9.68;1.58;;;18.20;66.50;;;;;;5015863;28;20518;-71
2021/11/04 12:49:16;;;;;;;6.32;1.30;;;18.20;69.10;;;;;;5015801;28;20026;-70